This is the latest recevied weather packets stored in our database for station/object PY2VE-13. If no packets are shown the sender has not sent any weather packets the latest 10 day(s).
| Time | Temp. | Humidity | Pressure | Rain* | Wind** | Luminosity | Snow |
|---|---|---|---|---|---|---|---|
| 1777469617 | 30° C | 47% | 1020 hPa | - | - | - | - |
| 1777468717 | 30° C | 50% | 1020 hPa | - | - | - | - |
| 1777467817 | 29.44° C | 51% | 1020.4 hPa | - | - | - | - |
| 1777466917 | 28.89° C | 53% | 1020.4 hPa | - | - | - | - |
| 1777466017 | 29.44° C | 51% | 1020.4 hPa | - | - | - | - |
| 1777465117 | 28.33° C | 56% | 1020.6 hPa | - | - | - | - |
| 1777464217 | 26.67° C | 62% | 1020.9 hPa | - | - | - | - |
| 1777463317 | 25° C | 69% | 1021.3 hPa | - | - | - | - |
| 1777462417 | 24.44° C | 70% | 1021.2 hPa | - | - | - | - |
| 1777461517 | 24.44° C | 69% | 1021.1 hPa | - | - | - | - |
| 1777460617 | 25° C | 67% | 1020.8 hPa | - | - | - | - |
| 1777459717 | 24.44° C | 69% | 1021 hPa | - | - | - | - |
| 1777458816 | 25° C | 67% | 1020.8 hPa | - | - | - | - |
| 1777457917 | 25° C | 67% | 1020.7 hPa | - | - | - | - |
| 1777457016 | 22.78° C | 76% | 1021.3 hPa | - | - | - | - |
| 1777456116 | 24.44° C | 70% | 1020.8 hPa | - | - | - | - |
| 1777455216 | 25° C | 67% | 1020.2 hPa | - | - | - | - |
| 1777454316 | 23.89° C | 72% | 1020.4 hPa | - | - | - | - |
| 1777453416 | 23.89° C | 71% | 1020 hPa | - | - | - | - |
| 1777452516 | 25.56° C | 66% | 1019.5 hPa | - | - | - | - |
| 1777451616 | 25° C | 68% | 1019.4 hPa | - | - | - | - |
| 1777450716 | 23.89° C | 71% | 1019.5 hPa | - | - | - | - |
| 1777449816 | 25.56° C | 66% | 1019.2 hPa | - | - | - | - |
| 1777448916 | 25° C | 67% | 1019.1 hPa | - | - | - | - |
| 1777448016 | 25.56° C | 68% | 1019.2 hPa | - | - | - | - |
* Rain since midnight (hover to see other rain measurements)
** Current wind speed in m/s (hover to see current wind gust speed)